sensor_id;sensor_type;location;lat;lon;timestamp;pressure;altitude;pressure_sealevel;temperature
56286;BMP180;42191;47.562;9.686;2022-10-16T00:02:07;96839.00;;;19.30
56286;BMP180;42191;47.562;9.686;2022-10-16T00:04:33;96836.00;;;19.30
56286;BMP180;42191;47.562;9.686;2022-10-16T00:06:59;96852.00;;;19.40
56286;BMP180;42191;47.562;9.686;2022-10-16T00:09:25;96848.00;;;19.40
56286;BMP180;42191;47.562;9.686;2022-10-16T00:11:51;96852.00;;;19.40
56286;BMP180;42191;47.562;9.686;2022-10-16T00:14:18;96846.00;;;19.40
56286;BMP180;42191;47.562;9.686;2022-10-16T00:16:44;96861.00;;;19.50
56286;BMP180;42191;47.562;9.686;2022-10-16T00:19:11;96856.00;;;19.50
56286;BMP180;42191;47.562;9.686;2022-10-16T00:21:38;96861.00;;;19.50
56286;BMP180;42191;47.562;9.686;2022-10-16T00:24:08;96855.00;;;19.50
56286;BMP180;42191;47.562;9.686;2022-10-16T00:26:35;96855.00;;;19.50
56286;BMP180;42191;47.562;9.686;2022-10-16T00:29:02;96852.00;;;19.60
56286;BMP180;42191;47.562;9.686;2022-10-16T00:31:29;96855.00;;;19.60
56286;BMP180;42191;47.562;9.686;2022-10-16T00:33:55;96853.00;;;19.60
56286;BMP180;42191;47.562;9.686;2022-10-16T00:36:23;96862.00;;;19.60
56286;BMP180;42191;47.562;9.686;2022-10-16T00:38:51;96862.00;;;19.60
56286;BMP180;42191;47.562;9.686;2022-10-16T00:41:22;96874.00;;;19.60
56286;BMP180;42191;47.562;9.686;2022-10-16T00:43:52;96862.00;;;19.60
56286;BMP180;42191;47.562;9.686;2022-10-16T00:51:28;96860.00;;;19.60
56286;BMP180;42191;47.562;9.686;2022-10-16T00:53:55;96859.00;;;19.60
56286;BMP180;42191;47.562;9.686;2022-10-16T00:56:22;96849.00;;;19.60
56286;BMP180;42191;47.562;9.686;2022-10-16T00:58:48;96858.00;;;19.60
56286;BMP180;42191;47.562;9.686;2022-10-16T01:01:14;96857.00;;;19.60
56286;BMP180;42191;47.562;9.686;2022-10-16T01:03:41;96855.00;;;19.60
56286;BMP180;42191;47.562;9.686;2022-10-16T01:06:23;96849.00;;;19.60
56286;BMP180;42191;47.562;9.686;2022-10-16T01:08:58;96855.00;;;19.60
56286;BMP180;42191;47.562;9.686;2022-10-16T01:11:33;96851.00;;;19.60
56286;BMP180;42191;47.562;9.686;2022-10-16T01:14:06;96855.00;;;19.60
56286;BMP180;42191;47.562;9.686;2022-10-16T01:16:47;96853.00;;;19.60
56286;BMP180;42191;47.562;9.686;2022-10-16T01:19:25;96864.00;;;19.60
56286;BMP180;42191;47.562;9.686;2022-10-16T01:21:53;96856.00;;;19.60
56286;BMP180;42191;47.562;9.686;2022-10-16T01:35:25;96854.00;;;19.60
56286;BMP180;42191;47.562;9.686;2022-10-16T01:40:39;96852.00;;;19.60
56286;BMP180;42191;47.562;9.686;2022-10-16T01:43:16;96850.00;;;19.60
56286;BMP180;42191;47.562;9.686;2022-10-16T01:45:45;96856.00;;;19.60
56286;BMP180;42191;47.562;9.686;2022-10-16T01:48:14;96853.00;;;19.60
56286;BMP180;42191;47.562;9.686;2022-10-16T01:50:43;96850.00;;;19.60
56286;BMP180;42191;47.562;9.686;2022-10-16T01:53:12;96855.00;;;19.60
56286;BMP180;42191;47.562;9.686;2022-10-16T01:55:45;96869.00;;;19.60
56286;BMP180;42191;47.562;9.686;2022-10-16T01:58:13;96871.00;;;19.60
56286;BMP180;42191;47.562;9.686;2022-10-16T02:00:42;96873.00;;;19.60
56286;BMP180;42191;47.562;9.686;2022-10-16T02:03:11;96881.00;;;19.60
56286;BMP180;42191;47.562;9.686;2022-10-16T02:08:09;96881.00;;;19.70
56286;BMP180;42191;47.562;9.686;2022-10-16T02:10:36;96881.00;;;19.70
56286;BMP180;42191;47.562;9.686;2022-10-16T02:13:08;96874.00;;;19.60
56286;BMP180;42191;47.562;9.686;2022-10-16T02:15:35;96871.00;;;19.70
56286;BMP180;42191;47.562;9.686;2022-10-16T02:18:04;96879.00;;;19.60
56286;BMP180;42191;47.562;9.686;2022-10-16T02:20:47;96880.00;;;19.60
56286;BMP180;42191;47.562;9.686;2022-10-16T02:23:29;96889.00;;;19.60
56286;BMP180;42191;47.562;9.686;2022-10-16T02:25:58;96882.00;;;19.60
56286;BMP180;42191;47.562;9.686;2022-10-16T02:28:31;96884.00;;;19.60
56286;BMP180;42191;47.562;9.686;2022-10-16T02:31:06;96883.00;;;19.60
56286;BMP180;42191;47.562;9.686;2022-10-16T02:33:35;96868.00;;;19.60
56286;BMP180;42191;47.562;9.686;2022-10-16T02:36:03;96876.00;;;19.60
56286;BMP180;42191;47.562;9.686;2022-10-16T02:38:30;96883.00;;;19.60
56286;BMP180;42191;47.562;9.686;2022-10-16T02:40:57;96878.00;;;19.60
56286;BMP180;42191;47.562;9.686;2022-10-16T02:43:25;96877.00;;;19.60
56286;BMP180;42191;47.562;9.686;2022-10-16T02:45:51;96878.00;;;19.60
56286;BMP180;42191;47.562;9.686;2022-10-16T02:48:18;96873.00;;;19.60
56286;BMP180;42191;47.562;9.686;2022-10-16T02:50:44;96871.00;;;19.60
56286;BMP180;42191;47.562;9.686;2022-10-16T02:53:10;96863.00;;;19.60
56286;BMP180;42191;47.562;9.686;2022-10-16T02:55:36;96870.00;;;19.60
56286;BMP180;42191;47.562;9.686;2022-10-16T02:58:02;96876.00;;;19.60
56286;BMP180;42191;47.562;9.686;2022-10-16T03:00:28;96865.00;;;19.60
56286;BMP180;42191;47.562;9.686;2022-10-16T03:02:54;96856.00;;;19.60
56286;BMP180;42191;47.562;9.686;2022-10-16T03:05:21;96854.00;;;19.60
56286;BMP180;42191;47.562;9.686;2022-10-16T03:07:47;96855.00;;;19.60
56286;BMP180;42191;47.562;9.686;2022-10-16T03:10:13;96861.00;;;19.60
56286;BMP180;42191;47.562;9.686;2022-10-16T03:12:39;96838.00;;;19.60
56286;BMP180;42191;47.562;9.686;2022-10-16T03:15:05;96843.00;;;19.60
56286;BMP180;42191;47.562;9.686;2022-10-16T03:17:32;96848.00;;;19.60
56286;BMP180;42191;47.562;9.686;2022-10-16T03:19:59;96847.00;;;19.60
56286;BMP180;42191;47.562;9.686;2022-10-16T03:22:25;96844.00;;;19.60
56286;BMP180;42191;47.562;9.686;2022-10-16T03:24:51;96852.00;;;19.50
56286;BMP180;42191;47.562;9.686;2022-10-16T03:27:17;96857.00;;;19.50
56286;BMP180;42191;47.562;9.686;2022-10-16T03:29:44;96854.00;;;19.40
56286;BMP180;42191;47.562;9.686;2022-10-16T03:32:10;96846.00;;;19.40
56286;BMP180;42191;47.562;9.686;2022-10-16T03:34:36;96861.00;;;19.30
56286;BMP180;42191;47.562;9.686;2022-10-16T03:37:02;96865.00;;;19.30
56286;BMP180;42191;47.562;9.686;2022-10-16T03:39:28;96878.00;;;19.20
56286;BMP180;42191;47.562;9.686;2022-10-16T03:41:54;96874.00;;;19.20
56286;BMP180;42191;47.562;9.686;2022-10-16T03:44:20;96875.00;;;19.10
56286;BMP180;42191;47.562;9.686;2022-10-16T03:46:47;96872.00;;;19.10
56286;BMP180;42191;47.562;9.686;2022-10-16T03:49:13;96859.00;;;19.00
56286;BMP180;42191;47.562;9.686;2022-10-16T03:51:39;96850.00;;;19.00
56286;BMP180;42191;47.562;9.686;2022-10-16T03:54:05;96850.00;;;19.00
56286;BMP180;42191;47.562;9.686;2022-10-16T03:56:31;96864.00;;;19.00
56286;BMP180;42191;47.562;9.686;2022-10-16T03:58:57;96850.00;;;19.00
56286;BMP180;42191;47.562;9.686;2022-10-16T04:01:23;96858.00;;;19.00
56286;BMP180;42191;47.562;9.686;2022-10-16T04:03:50;96870.00;;;19.00
56286;BMP180;42191;47.562;9.686;2022-10-16T04:06:16;96865.00;;;19.00
56286;BMP180;42191;47.562;9.686;2022-10-16T04:08:45;96875.00;;;19.00
56286;BMP180;42191;47.562;9.686;2022-10-16T04:11:11;96870.00;;;19.00
56286;BMP180;42191;47.562;9.686;2022-10-16T04:13:37;96871.00;;;19.00
56286;BMP180;42191;47.562;9.686;2022-10-16T04:16:03;96875.00;;;19.00
56286;BMP180;42191;47.562;9.686;2022-10-16T04:18:29;96881.00;;;19.00
56286;BMP180;42191;47.562;9.686;2022-10-16T04:20:56;96888.00;;;19.00
56286;BMP180;42191;47.562;9.686;2022-10-16T04:23:22;96887.00;;;19.00
56286;BMP180;42191;47.562;9.686;2022-10-16T04:25:49;96899.00;;;19.00
56286;BMP180;42191;47.562;9.686;2022-10-16T04:28:15;96905.00;;;19.00
56286;BMP180;42191;47.562;9.686;2022-10-16T04:30:41;96910.00;;;19.00
56286;BMP180;42191;47.562;9.686;2022-10-16T04:33:09;96913.00;;;19.00
56286;BMP180;42191;47.562;9.686;2022-10-16T04:35:35;96913.00;;;18.90
56286;BMP180;42191;47.562;9.686;2022-10-16T04:38:02;96913.00;;;18.90
56286;BMP180;42191;47.562;9.686;2022-10-16T04:40:28;96901.00;;;18.90
56286;BMP180;42191;47.562;9.686;2022-10-16T04:42:54;96907.00;;;18.80
56286;BMP180;42191;47.562;9.686;2022-10-16T04:45:20;96912.00;;;18.80
56286;BMP180;42191;47.562;9.686;2022-10-16T04:47:46;96921.00;;;18.80
56286;BMP180;42191;47.562;9.686;2022-10-16T04:50:12;96917.00;;;18.80
56286;BMP180;42191;47.562;9.686;2022-10-16T04:52:38;96917.00;;;18.80
56286;BMP180;42191;47.562;9.686;2022-10-16T04:55:05;96922.00;;;18.80
56286;BMP180;42191;47.562;9.686;2022-10-16T04:57:31;96917.00;;;18.80
56286;BMP180;42191;47.562;9.686;2022-10-16T04:59:59;96917.00;;;18.70
56286;BMP180;42191;47.562;9.686;2022-10-16T05:02:25;96922.00;;;18.70
56286;BMP180;42191;47.562;9.686;2022-10-16T05:04:52;96918.00;;;18.70
56286;BMP180;42191;47.562;9.686;2022-10-16T05:07:18;96917.00;;;18.70
56286;BMP180;42191;47.562;9.686;2022-10-16T05:09:44;96921.00;;;18.70
56286;BMP180;42191;47.562;9.686;2022-10-16T05:12:10;96921.00;;;18.80
56286;BMP180;42191;47.562;9.686;2022-10-16T05:14:36;96922.00;;;18.80
56286;BMP180;42191;47.562;9.686;2022-10-16T05:17:02;96930.00;;;18.80
56286;BMP180;42191;47.562;9.686;2022-10-16T05:19:28;96928.00;;;18.80
56286;BMP180;42191;47.562;9.686;2022-10-16T05:21:55;96929.00;;;18.80
56286;BMP180;42191;47.562;9.686;2022-10-16T05:24:21;96926.00;;;18.80
56286;BMP180;42191;47.562;9.686;2022-10-16T05:26:47;96929.00;;;18.90
56286;BMP180;42191;47.562;9.686;2022-10-16T05:29:13;96938.00;;;18.90
56286;BMP180;42191;47.562;9.686;2022-10-16T05:31:40;96937.00;;;18.90
56286;BMP180;42191;47.562;9.686;2022-10-16T05:34:06;96940.00;;;18.90
56286;BMP180;42191;47.562;9.686;2022-10-16T05:36:32;96937.00;;;18.90
56286;BMP180;42191;47.562;9.686;2022-10-16T05:38:58;96939.00;;;19.00
56286;BMP180;42191;47.562;9.686;2022-10-16T05:41:24;96943.00;;;19.00
56286;BMP180;42191;47.562;9.686;2022-10-16T05:43:52;96934.00;;;19.00
56286;BMP180;42191;47.562;9.686;2022-10-16T05:46:18;96951.00;;;19.00
56286;BMP180;42191;47.562;9.686;2022-10-16T05:48:45;96947.00;;;19.00
56286;BMP180;42191;47.562;9.686;2022-10-16T05:51:13;96946.00;;;18.90
56286;BMP180;42191;47.562;9.686;2022-10-16T05:53:40;96950.00;;;19.00
56286;BMP180;42191;47.562;9.686;2022-10-16T05:56:09;96960.00;;;19.00
56286;BMP180;42191;47.562;9.686;2022-10-16T05:58:37;96957.00;;;19.00
56286;BMP180;42191;47.562;9.686;2022-10-16T06:01:14;96966.00;;;19.00
56286;BMP180;42191;47.562;9.686;2022-10-16T06:03:41;96962.00;;;19.10
56286;BMP180;42191;47.562;9.686;2022-10-16T06:06:16;96963.00;;;19.10
56286;BMP180;42191;47.562;9.686;2022-10-16T06:08:43;96973.00;;;19.10
56286;BMP180;42191;47.562;9.686;2022-10-16T06:11:13;96964.00;;;19.10
56286;BMP180;42191;47.562;9.686;2022-10-16T06:13:40;96961.00;;;19.10
56286;BMP180;42191;47.562;9.686;2022-10-16T06:16:09;96955.00;;;19.20
56286;BMP180;42191;47.562;9.686;2022-10-16T06:18:35;96958.00;;;19.20
56286;BMP180;42191;47.562;9.686;2022-10-16T06:21:08;96951.00;;;19.20
56286;BMP180;42191;47.562;9.686;2022-10-16T06:23:34;96956.00;;;19.20
56286;BMP180;42191;47.562;9.686;2022-10-16T06:26:11;96966.00;;;19.20
56286;BMP180;42191;47.562;9.686;2022-10-16T06:28:38;96972.00;;;19.10
56286;BMP180;42191;47.562;9.686;2022-10-16T06:31:06;96978.00;;;19.10
56286;BMP180;42191;47.562;9.686;2022-10-16T06:33:32;96985.00;;;19.10
56286;BMP180;42191;47.562;9.686;2022-10-16T06:36:11;96991.00;;;19.00
56286;BMP180;42191;47.562;9.686;2022-10-16T06:38:37;96993.00;;;19.00
56286;BMP180;42191;47.562;9.686;2022-10-16T06:41:04;96988.00;;;19.00
56286;BMP180;42191;47.562;9.686;2022-10-16T06:43:31;96987.00;;;19.00
56286;BMP180;42191;47.562;9.686;2022-10-16T06:45:59;97003.00;;;19.00
56286;BMP180;42191;47.562;9.686;2022-10-16T06:48:26;96991.00;;;19.00
56286;BMP180;42191;47.562;9.686;2022-10-16T06:51:04;97002.00;;;19.00
56286;BMP180;42191;47.562;9.686;2022-10-16T06:53:33;97001.00;;;19.00
56286;BMP180;42191;47.562;9.686;2022-10-16T06:58:33;97002.00;;;19.20
56286;BMP180;42191;47.562;9.686;2022-10-16T07:00:59;97007.00;;;19.30
56286;BMP180;42191;47.562;9.686;2022-10-16T07:03:25;97012.00;;;19.40
56286;BMP180;42191;47.562;9.686;2022-10-16T07:05:51;97019.00;;;19.50
56286;BMP180;42191;47.562;9.686;2022-10-16T07:08:18;97024.00;;;19.60
56286;BMP180;42191;47.562;9.686;2022-10-16T07:10:44;97031.00;;;19.70
56286;BMP180;42191;47.562;9.686;2022-10-16T07:13:10;97027.00;;;19.80
56286;BMP180;42191;47.562;9.686;2022-10-16T07:15:39;97038.00;;;19.90
56286;BMP180;42191;47.562;9.686;2022-10-16T07:18:05;97025.00;;;20.00
56286;BMP180;42191;47.562;9.686;2022-10-16T07:20:32;97031.00;;;20.00
56286;BMP180;42191;47.562;9.686;2022-10-16T07:22:58;97032.00;;;20.10
56286;BMP180;42191;47.562;9.686;2022-10-16T07:25:24;97031.00;;;20.20
56286;BMP180;42191;47.562;9.686;2022-10-16T07:27:50;97036.00;;;20.20
56286;BMP180;42191;47.562;9.686;2022-10-16T07:30:16;97032.00;;;20.30
56286;BMP180;42191;47.562;9.686;2022-10-16T07:32:42;97042.00;;;20.40
56286;BMP180;42191;47.562;9.686;2022-10-16T07:35:08;97043.00;;;20.50
56286;BMP180;42191;47.562;9.686;2022-10-16T07:37:35;97035.00;;;20.60
56286;BMP180;42191;47.562;9.686;2022-10-16T07:40:01;97040.00;;;20.60
56286;BMP180;42191;47.562;9.686;2022-10-16T07:42:27;97047.00;;;20.70
56286;BMP180;42191;47.562;9.686;2022-10-16T07:44:54;97039.00;;;20.80
56286;BMP180;42191;47.562;9.686;2022-10-16T07:47:20;97056.00;;;20.80
56286;BMP180;42191;47.562;9.686;2022-10-16T07:49:46;97052.00;;;20.90
56286;BMP180;42191;47.562;9.686;2022-10-16T07:52:12;97044.00;;;20.90
56286;BMP180;42191;47.562;9.686;2022-10-16T07:54:38;97051.00;;;21.00
56286;BMP180;42191;47.562;9.686;2022-10-16T07:57:04;97062.00;;;21.00
56286;BMP180;42191;47.562;9.686;2022-10-16T07:59:30;97052.00;;;21.10
56286;BMP180;42191;47.562;9.686;2022-10-16T08:01:57;97061.00;;;21.10
56286;BMP180;42191;47.562;9.686;2022-10-16T08:04:23;97073.00;;;21.10
56286;BMP180;42191;47.562;9.686;2022-10-16T08:06:49;97078.00;;;21.10
56286;BMP180;42191;47.562;9.686;2022-10-16T08:09:15;97084.00;;;21.10
56286;BMP180;42191;47.562;9.686;2022-10-16T08:11:41;97083.00;;;21.10
56286;BMP180;42191;47.562;9.686;2022-10-16T08:14:07;97084.00;;;21.10
56286;BMP180;42191;47.562;9.686;2022-10-16T08:16:34;97085.00;;;21.10
56286;BMP180;42191;47.562;9.686;2022-10-16T08:19:00;97078.00;;;21.00
56286;BMP180;42191;47.562;9.686;2022-10-16T08:21:26;97073.00;;;21.00
56286;BMP180;42191;47.562;9.686;2022-10-16T08:23:53;97077.00;;;21.00
56286;BMP180;42191;47.562;9.686;2022-10-16T08:26:20;97082.00;;;21.00
56286;BMP180;42191;47.562;9.686;2022-10-16T08:28:50;97092.00;;;21.00
56286;BMP180;42191;47.562;9.686;2022-10-16T08:31:17;97106.00;;;21.00
56286;BMP180;42191;47.562;9.686;2022-10-16T08:33:44;97110.00;;;21.00
56286;BMP180;42191;47.562;9.686;2022-10-16T08:36:12;97108.00;;;21.00
56286;BMP180;42191;47.562;9.686;2022-10-16T08:38:38;97104.00;;;21.00
56286;BMP180;42191;47.562;9.686;2022-10-16T08:44:07;97108.00;;;21.00
56286;BMP180;42191;47.562;9.686;2022-10-16T08:49:26;97115.00;;;21.00
56286;BMP180;42191;47.562;9.686;2022-10-16T08:51:53;97113.00;;;21.00
56286;BMP180;42191;47.562;9.686;2022-10-16T08:54:36;97111.00;;;21.00
56286;BMP180;42191;47.562;9.686;2022-10-16T08:57:21;97113.00;;;21.00
56286;BMP180;42191;47.562;9.686;2022-10-16T08:59:47;97127.00;;;21.00
56286;BMP180;42191;47.562;9.686;2022-10-16T09:02:37;97121.00;;;21.00
56286;BMP180;42191;47.562;9.686;2022-10-16T09:13:55;97119.00;;;21.00
56286;BMP180;42191;47.562;9.686;2022-10-16T09:16:41;97122.00;;;21.10
56286;BMP180;42191;47.562;9.686;2022-10-16T09:19:34;97120.00;;;21.10
56286;BMP180;42191;47.562;9.686;2022-10-16T09:22:12;97126.00;;;21.20
56286;BMP180;42191;47.562;9.686;2022-10-16T09:24:40;97129.00;;;21.30
56286;BMP180;42191;47.562;9.686;2022-10-16T09:27:10;97124.00;;;21.40
56286;BMP180;42191;47.562;9.686;2022-10-16T09:29:37;97125.00;;;21.50
56286;BMP180;42191;47.562;9.686;2022-10-16T09:32:14;97142.00;;;21.60
56286;BMP180;42191;47.562;9.686;2022-10-16T09:34:48;97141.00;;;21.70
56286;BMP180;42191;47.562;9.686;2022-10-16T09:37:19;97142.00;;;21.80
56286;BMP180;42191;47.562;9.686;2022-10-16T09:39:50;97133.00;;;21.90
56286;BMP180;42191;47.562;9.686;2022-10-16T09:42:20;97147.00;;;22.00
56286;BMP180;42191;47.562;9.686;2022-10-16T09:44:50;97147.00;;;22.10
56286;BMP180;42191;47.562;9.686;2022-10-16T09:47:28;97149.00;;;22.20
56286;BMP180;42191;47.562;9.686;2022-10-16T09:49:59;97146.00;;;22.30
56286;BMP180;42191;47.562;9.686;2022-10-16T09:52:31;97142.00;;;22.30
56286;BMP180;42191;47.562;9.686;2022-10-16T09:54:59;97145.00;;;22.40
56286;BMP180;42191;47.562;9.686;2022-10-16T09:57:26;97143.00;;;22.50
56286;BMP180;42191;47.562;9.686;2022-10-16T09:59:55;97140.00;;;22.60
56286;BMP180;42191;47.562;9.686;2022-10-16T10:02:37;97141.00;;;22.70
56286;BMP180;42191;47.562;9.686;2022-10-16T10:05:06;97144.00;;;22.80
56286;BMP180;42191;47.562;9.686;2022-10-16T10:07:43;97146.00;;;22.80
56286;BMP180;42191;47.562;9.686;2022-10-16T10:10:22;97143.00;;;22.90
56286;BMP180;42191;47.562;9.686;2022-10-16T10:12:48;97143.00;;;22.90
56286;BMP180;42191;47.562;9.686;2022-10-16T10:15:16;97146.00;;;23.00
56286;BMP180;42191;47.562;9.686;2022-10-16T10:17:50;97140.00;;;23.00
56286;BMP180;42191;47.562;9.686;2022-10-16T10:20:36;97146.00;;;23.10
56286;BMP180;42191;47.562;9.686;2022-10-16T10:23:22;97154.00;;;23.20
56286;BMP180;42191;47.562;9.686;2022-10-16T10:26:10;97146.00;;;23.20
56286;BMP180;42191;47.562;9.686;2022-10-16T10:37:04;97146.00;;;23.40
56286;BMP180;42191;47.562;9.686;2022-10-16T10:39:57;97147.00;;;23.50
56286;BMP180;42191;47.562;9.686;2022-10-16T10:42:52;97154.00;;;23.50
56286;BMP180;42191;47.562;9.686;2022-10-16T10:45:47;97144.00;;;23.60
56286;BMP180;42191;47.562;9.686;2022-10-16T10:48:43;97140.00;;;23.60
56286;BMP180;42191;47.562;9.686;2022-10-16T10:54:14;97138.00;;;23.70
56286;BMP180;42191;47.562;9.686;2022-10-16T10:59:32;97134.00;;;23.90
56286;BMP180;42191;47.562;9.686;2022-10-16T11:07:30;97123.00;;;24.10
56286;BMP180;42191;47.562;9.686;2022-10-16T11:10:03;97130.00;;;24.10
56286;BMP180;42191;47.562;9.686;2022-10-16T11:12:47;97124.00;;;24.10
56286;BMP180;42191;47.562;9.686;2022-10-16T11:15:21;97122.00;;;24.10
56286;BMP180;42191;47.562;9.686;2022-10-16T11:18:10;97114.00;;;24.10
56286;BMP180;42191;47.562;9.686;2022-10-16T11:20:46;97128.00;;;24.20
56286;BMP180;42191;47.562;9.686;2022-10-16T11:25:56;97113.00;;;24.30
56286;BMP180;42191;47.562;9.686;2022-10-16T11:28:39;97119.00;;;24.30
56286;BMP180;42191;47.562;9.686;2022-10-16T11:31:13;97111.00;;;24.40
56286;BMP180;42191;47.562;9.686;2022-10-16T11:33:44;97109.00;;;24.50
56286;BMP180;42191;47.562;9.686;2022-10-16T11:36:36;97113.00;;;24.50
56286;BMP180;42191;47.562;9.686;2022-10-16T11:39:08;97105.00;;;24.60
56286;BMP180;42191;47.562;9.686;2022-10-16T11:47:15;97098.00;;;24.60
56286;BMP180;42191;47.562;9.686;2022-10-16T11:49:46;97093.00;;;24.70
56286;BMP180;42191;47.562;9.686;2022-10-16T11:52:39;97084.00;;;24.70
56286;BMP180;42191;47.562;9.686;2022-10-16T11:55:19;97086.00;;;24.70
56286;BMP180;42191;47.562;9.686;2022-10-16T11:57:51;97090.00;;;24.80
56286;BMP180;42191;47.562;9.686;2022-10-16T12:00:24;97080.00;;;24.80
56286;BMP180;42191;47.562;9.686;2022-10-16T12:03:15;97086.00;;;24.90
56286;BMP180;42191;47.562;9.686;2022-10-16T12:08:41;97074.00;;;25.10
56286;BMP180;42191;47.562;9.686;2022-10-16T12:11:30;97074.00;;;25.20
56286;BMP180;42191;47.562;9.686;2022-10-16T12:19:26;97063.00;;;25.50
56286;BMP180;42191;47.562;9.686;2022-10-16T12:21:58;97069.00;;;25.50
56286;BMP180;42191;47.562;9.686;2022-10-16T12:24:37;97072.00;;;25.60
56286;BMP180;42191;47.562;9.686;2022-10-16T12:27:06;97071.00;;;25.70
56286;BMP180;42191;47.562;9.686;2022-10-16T12:29:41;97069.00;;;25.80
56286;BMP180;42191;47.562;9.686;2022-10-16T12:32:31;97065.00;;;25.90
56286;BMP180;42191;47.562;9.686;2022-10-16T12:34:59;97070.00;;;26.00
56286;BMP180;42191;47.562;9.686;2022-10-16T12:37:34;97068.00;;;26.10
56286;BMP180;42191;47.562;9.686;2022-10-16T12:40:22;97072.00;;;26.20
56286;BMP180;42191;47.562;9.686;2022-10-16T12:42:49;97071.00;;;26.30
56286;BMP180;42191;47.562;9.686;2022-10-16T12:45:30;97070.00;;;26.40
56286;BMP180;42191;47.562;9.686;2022-10-16T12:47:58;97065.00;;;26.50
56286;BMP180;42191;47.562;9.686;2022-10-16T12:50:45;97064.00;;;26.60
56286;BMP180;42191;47.562;9.686;2022-10-16T12:53:20;97061.00;;;26.60
56286;BMP180;42191;47.562;9.686;2022-10-16T12:58:46;97056.00;;;26.70
56286;BMP180;42191;47.562;9.686;2022-10-16T13:06:40;97052.00;;;26.80
56286;BMP180;42191;47.562;9.686;2022-10-16T13:09:23;97051.00;;;26.90
56286;BMP180;42191;47.562;9.686;2022-10-16T13:17:16;97046.00;;;27.00
56286;BMP180;42191;47.562;9.686;2022-10-16T13:29:19;97041.00;;;27.20
56286;BMP180;42191;47.562;9.686;2022-10-16T13:33:19;97040.00;;;27.40
56286;BMP180;42191;47.562;9.686;2022-10-16T13:46:34;97035.00;;;29.70
56286;BMP180;42191;47.562;9.686;2022-10-16T13:57:11;97033.00;;;31.90
56286;BMP180;42191;47.562;9.686;2022-10-16T13:59:57;97038.00;;;32.30
56286;BMP180;42191;47.562;9.686;2022-10-16T14:02:38;97039.00;;;32.50
56286;BMP180;42191;47.562;9.686;2022-10-16T14:05:08;97039.00;;;32.50
56286;BMP180;42191;47.562;9.686;2022-10-16T14:07:37;97035.00;;;32.60
56286;BMP180;42191;47.562;9.686;2022-10-16T14:10:07;97042.00;;;32.80
56286;BMP180;42191;47.562;9.686;2022-10-16T14:12:34;97044.00;;;32.90
56286;BMP180;42191;47.562;9.686;2022-10-16T14:15:01;97041.00;;;33.00
56286;BMP180;42191;47.562;9.686;2022-10-16T14:17:34;97044.00;;;33.10
56286;BMP180;42191;47.562;9.686;2022-10-16T14:20:03;97043.00;;;33.20
56286;BMP180;42191;47.562;9.686;2022-10-16T14:22:37;97044.00;;;33.30
56286;BMP180;42191;47.562;9.686;2022-10-16T14:25:25;97049.00;;;33.40
56286;BMP180;42191;47.562;9.686;2022-10-16T14:28:01;97049.00;;;33.60
56286;BMP180;42191;47.562;9.686;2022-10-16T14:30:28;97041.00;;;33.70
56286;BMP180;42191;47.562;9.686;2022-10-16T14:32:59;97047.00;;;33.80
56286;BMP180;42191;47.562;9.686;2022-10-16T14:35:34;97049.00;;;33.80
56286;BMP180;42191;47.562;9.686;2022-10-16T14:38:02;97054.00;;;33.80
56286;BMP180;42191;47.562;9.686;2022-10-16T14:40:31;97046.00;;;33.70
56286;BMP180;42191;47.562;9.686;2022-10-16T14:42:58;97054.00;;;33.60
56286;BMP180;42191;47.562;9.686;2022-10-16T14:45:27;97055.00;;;33.50
56286;BMP180;42191;47.562;9.686;2022-10-16T14:47:56;97057.00;;;33.50
56286;BMP180;42191;47.562;9.686;2022-10-16T14:50:23;97059.00;;;33.50
56286;BMP180;42191;47.562;9.686;2022-10-16T14:52:49;97053.00;;;33.50
56286;BMP180;42191;47.562;9.686;2022-10-16T14:55:15;97055.00;;;33.60
56286;BMP180;42191;47.562;9.686;2022-10-16T14:57:43;97056.00;;;33.60
56286;BMP180;42191;47.562;9.686;2022-10-16T15:00:24;97059.00;;;33.70
56286;BMP180;42191;47.562;9.686;2022-10-16T15:02:51;97055.00;;;33.80
56286;BMP180;42191;47.562;9.686;2022-10-16T15:05:20;97053.00;;;33.90
56286;BMP180;42191;47.562;9.686;2022-10-16T15:07:48;97050.00;;;34.00
56286;BMP180;42191;47.562;9.686;2022-10-16T15:10:18;97048.00;;;34.10
56286;BMP180;42191;47.562;9.686;2022-10-16T15:12:45;97060.00;;;34.10
56286;BMP180;42191;47.562;9.686;2022-10-16T15:17:54;97054.00;;;34.00
56286;BMP180;42191;47.562;9.686;2022-10-16T15:20:27;97052.00;;;34.10
56286;BMP180;42191;47.562;9.686;2022-10-16T15:22:54;97058.00;;;34.10
56286;BMP180;42191;47.562;9.686;2022-10-16T15:25:33;97058.00;;;34.00
56286;BMP180;42191;47.562;9.686;2022-10-16T15:28:01;97051.00;;;33.90
56286;BMP180;42191;47.562;9.686;2022-10-16T15:30:27;97066.00;;;33.70
56286;BMP180;42191;47.562;9.686;2022-10-16T15:32:54;97062.00;;;33.40
56286;BMP180;42191;47.562;9.686;2022-10-16T15:35:20;97060.00;;;33.20
56286;BMP180;42191;47.562;9.686;2022-10-16T15:37:47;97070.00;;;32.90
56286;BMP180;42191;47.562;9.686;2022-10-16T15:40:14;97074.00;;;32.70
56286;BMP180;42191;47.562;9.686;2022-10-16T15:42:40;97076.00;;;32.40
56286;BMP180;42191;47.562;9.686;2022-10-16T15:45:08;97076.00;;;32.10
56286;BMP180;42191;47.562;9.686;2022-10-16T15:47:34;97087.00;;;31.80
56286;BMP180;42191;47.562;9.686;2022-10-16T15:50:00;97079.00;;;31.60
56286;BMP180;42191;47.562;9.686;2022-10-16T15:52:26;97092.00;;;31.50
56286;BMP180;42191;47.562;9.686;2022-10-16T15:54:54;97082.00;;;31.40
56286;BMP180;42191;47.562;9.686;2022-10-16T15:57:20;97081.00;;;31.30
56286;BMP180;42191;47.562;9.686;2022-10-16T15:59:46;97088.00;;;31.20
56286;BMP180;42191;47.562;9.686;2022-10-16T16:02:13;97085.00;;;31.20
56286;BMP180;42191;47.562;9.686;2022-10-16T16:04:39;97088.00;;;31.00
56286;BMP180;42191;47.562;9.686;2022-10-16T16:07:05;97084.00;;;30.90
56286;BMP180;42191;47.562;9.686;2022-10-16T16:09:33;97080.00;;;30.70
56286;BMP180;42191;47.562;9.686;2022-10-16T16:12:00;97086.00;;;30.40
56286;BMP180;42191;47.562;9.686;2022-10-16T16:14:27;97090.00;;;30.20
56286;BMP180;42191;47.562;9.686;2022-10-16T16:16:55;97100.00;;;29.90
56286;BMP180;42191;47.562;9.686;2022-10-16T16:19:21;97104.00;;;29.60
56286;BMP180;42191;47.562;9.686;2022-10-16T16:21:48;97099.00;;;29.30
56286;BMP180;42191;47.562;9.686;2022-10-16T16:24:15;97100.00;;;29.00
56286;BMP180;42191;47.562;9.686;2022-10-16T16:26:41;97108.00;;;28.70